createdAt,value
2017-04-22T00:00:03.855Z,47.94
2017-04-22T00:00:08.282Z,48.03
2017-04-22T00:00:12.474Z,47.94
2017-04-22T00:00:17.012Z,48.13
2017-04-22T00:00:21.435Z,47.85
2017-04-22T00:00:25.866Z,47.94
2017-04-22T00:00:30.297Z,47.94
2017-04-22T00:00:34.604Z,48.03
2017-04-22T00:00:38.929Z,48.13
2017-04-22T00:00:43.232Z,47.94
2017-04-22T00:00:47.536Z,47.94
2017-04-22T00:00:51.961Z,48.03
2017-04-22T00:00:56.261Z,48.03
2017-04-22T00:01:00.569Z,47.94
2017-04-22T00:01:04.871Z,47.85
2017-04-22T00:01:09.071Z,47.85
2017-04-22T00:01:13.536Z,47.56
2017-04-22T00:01:17.856Z,48.13
2017-04-22T00:01:22.286Z,48.03
2017-04-22T00:01:26.802Z,48.03
2017-04-22T00:01:31.372Z,48.03
2017-04-22T00:01:35.682Z,47.75
2017-04-22T00:01:40.103Z,48.03
2017-04-22T00:01:44.408Z,48.13
2017-04-22T00:01:48.709Z,48.03
2017-04-22T00:01:53.014Z,48.13
2017-04-22T00:01:57.475Z,47.94
2017-04-22T00:02:01.793Z,48.13
2017-04-22T00:02:06.107Z,48.13
2017-04-22T00:02:10.418Z,48.22
2017-04-22T00:02:14.853Z,48.22
2017-04-22T00:02:19.314Z,47.94
2017-04-22T00:02:23.617Z,47.94
2017-04-22T00:02:28.041Z,48.03
2017-04-22T00:02:32.463Z,47.94
2017-04-22T00:02:36.989Z,48.03
2017-04-22T00:02:41.430Z,48.03
2017-04-22T00:02:45.742Z,47.75
2017-04-22T00:02:50.173Z,47.75
2017-04-22T00:02:54.487Z,47.75
2017-04-22T00:02:58.920Z,48.22
2017-04-22T00:03:03.346Z,48.13
2017-04-22T00:03:07.769Z,47.85
2017-04-22T00:03:11.965Z,47.94
2017-04-22T00:03:16.267Z,47.94
2017-04-22T00:03:20.690Z,48.13
2017-04-22T00:03:25.136Z,48.13
2017-04-22T00:03:29.566Z,48.03
2017-04-22T00:03:33.877Z,48.32
2017-04-22T00:03:38.294Z,48.13
2017-04-22T00:03:42.617Z,48.22
2017-04-22T00:03:46.939Z,48.13
2017-04-22T00:03:51.395Z,48.32
2017-04-22T00:03:55.824Z,48.41
2017-04-22T00:04:00.265Z,48.51
2017-04-22T00:04:04.817Z,48.41
2017-04-22T00:04:09.133Z,48.22
2017-04-22T00:04:13.357Z,48.41
2017-04-22T00:04:17.782Z,48.22
2017-04-22T00:04:22.088Z,48.22
2017-04-22T00:04:26.512Z,48.32
2017-04-22T00:04:30.939Z,48.32
2017-04-22T00:04:35.366Z,48.22
2017-04-22T00:04:39.789Z,48.32
2017-04-22T00:04:44.096Z,48.32
2017-04-22T00:04:48.407Z,48.32
2017-04-22T00:04:52.968Z,48.22
2017-04-22T00:04:57.589Z,48.41
2017-04-22T00:05:02.021Z,48.32
2017-04-22T00:05:06.322Z,48.41
2017-04-22T00:05:10.741Z,48.32
2017-04-22T00:05:14.817Z,48.22
2017-04-22T00:05:19.127Z,48.22
2017-04-22T00:05:23.545Z,48.41
2017-04-22T00:05:27.851Z,48.41
2017-04-22T00:05:32.278Z,48.41
2017-04-22T00:05:36.584Z,48.51
2017-04-22T00:05:41.017Z,48.32
2017-04-22T00:05:45.318Z,48.32
2017-04-22T00:05:49.627Z,48.7
2017-04-22T00:05:53.951Z,48.51
2017-04-22T00:05:58.371Z,48.7
2017-04-22T00:06:02.933Z,48.61
2017-04-22T00:06:07.271Z,48.51
2017-04-22T00:06:11.577Z,48.7
2017-04-22T00:06:15.880Z,48.51
2017-04-22T00:06:20.080Z,48.51
2017-04-22T00:06:24.511Z,48.61
2017-04-22T00:06:28.948Z,48.51
2017-04-22T00:06:33.367Z,48.7
2017-04-22T00:06:37.682Z,48.32
2017-04-22T00:06:42.102Z,48.41
2017-04-22T00:06:46.418Z,48.41
2017-04-22T00:06:50.845Z,48.51
2017-04-22T00:06:55.152Z,48.61
2017-04-22T00:06:59.362Z,48.7
2017-04-22T00:07:03.867Z,48.61
2017-04-22T00:07:08.182Z,48.7
2017-04-22T00:07:12.322Z,48.61
2017-04-22T00:07:16.746Z,48.51
2017-04-22T00:07:21.170Z,48.41
2017-04-22T00:07:25.595Z,48.61
2017-04-22T00:07:30.023Z,48.8
2017-04-22T00:07:34.449Z,48.8
2017-04-22T00:07:38.785Z,48.89
2017-04-22T00:07:43.208Z,48.7
2017-04-22T00:07:47.164Z,48.8
2017-04-22T00:07:51.475Z,48.7
2017-04-22T00:07:55.902Z,48.8
2017-04-22T00:08:00.333Z,48.8
2017-04-22T00:08:04.755Z,48.7
2017-04-22T00:08:08.948Z,48.89
2017-04-22T00:08:13.152Z,48.7
2017-04-22T00:08:17.667Z,48.61
2017-04-22T00:08:22.122Z,48.7
2017-04-22T00:08:26.583Z,48.89
2017-04-22T00:08:31.004Z,48.8
2017-04-22T00:08:35.311Z,48.8
2017-04-22T00:08:39.650Z,48.8
2017-04-22T00:08:44.073Z,48.99
2017-04-22T00:08:48.377Z,48.89
2017-04-22T00:08:52.448Z,48.89
2017-04-22T00:08:56.894Z,48.89
2017-04-22T00:09:01.326Z,48.89
2017-04-22T00:09:05.747Z,48.89
2017-04-22T00:09:10.059Z,48.8
2017-04-22T00:09:14.393Z,48.8
2017-04-22T00:09:18.719Z,48.7
2017-04-22T00:09:23.148Z,48.89
2017-04-22T00:09:27.501Z,49.08
2017-04-22T00:09:31.920Z,48.99
2017-04-22T00:09:36.343Z,48.99
2017-04-22T00:09:40.769Z,48.8
2017-04-22T00:09:45.201Z,48.99
2017-04-22T00:09:49.512Z,48.99
2017-04-22T00:09:53.934Z,48.89
2017-04-22T00:09:58.361Z,48.99
2017-04-22T00:10:02.791Z,49.08
2017-04-22T00:10:06.990Z,48.99
2017-04-22T00:10:11.299Z,48.89
2017-04-22T00:10:15.254Z,48.7
2017-04-22T00:10:19.569Z,48.89
2017-04-22T00:10:23.879Z,48.89
2017-04-22T00:10:28.306Z,48.8
2017-04-22T00:10:32.825Z,48.8
2017-04-22T00:10:37.133Z,48.89
2017-04-22T00:10:41.552Z,48.99
2017-04-22T00:10:45.994Z,48.8
2017-04-22T00:10:50.184Z,48.8
2017-04-22T00:10:54.606Z,48.8
2017-04-22T00:10:59.025Z,48.8
2017-04-22T00:11:03.338Z,48.99
2017-04-22T00:11:07.656Z,48.99
2017-04-22T00:11:11.965Z,49.37
2017-04-22T00:11:16.389Z,49.74
2017-04-22T00:11:20.808Z,49.65
2017-04-22T00:11:25.238Z,49.74
2017-04-22T00:11:29.676Z,49.65
2017-04-22T00:11:34.097Z,49.55
2017-04-22T00:11:38.519Z,49.55
2017-04-22T00:11:42.975Z,49.65
2017-04-22T00:11:47.390Z,49.65
2017-04-22T00:11:51.836Z,49.55
2017-04-22T00:11:56.266Z,49.46
2017-04-22T00:12:00.686Z,49.46
2017-04-22T00:12:05.385Z,49.37
2017-04-22T00:12:09.577Z,49.37
2017-04-22T00:12:13.786Z,49.46
2017-04-22T00:12:18.211Z,49.27
2017-04-22T00:12:22.634Z,49.37
2017-04-22T00:12:27.058Z,49.46
2017-04-22T00:12:31.484Z,49.27
2017-04-22T00:12:35.915Z,49.18
2017-04-22T00:12:40.358Z,49.08
2017-04-22T00:12:44.801Z,49.18
2017-04-22T00:12:49.113Z,49.18
2017-04-22T00:12:53.472Z,49.18
2017-04-22T00:12:57.920Z,49.27
2017-04-22T00:13:02.226Z,49.27
2017-04-22T00:13:06.671Z,49.37
2017-04-22T00:13:10.974Z,49.37
2017-04-22T00:13:15.170Z,49.37
2017-04-22T00:13:19.617Z,49.46
2017-04-22T00:13:23.858Z,49.55
2017-04-22T00:13:28.540Z,49.55
2017-04-22T00:13:32.848Z,49.55
2017-04-22T00:13:37.274Z,49.65
2017-04-22T00:13:41.705Z,49.65
2017-04-22T00:13:46.049Z,49.74
2017-04-22T00:13:50.356Z,49.55
2017-04-22T00:13:54.667Z,49.74
2017-04-22T00:13:59.145Z,49.74
2017-04-22T00:14:03.599Z,49.74
2017-04-22T00:14:07.928Z,49.74
2017-04-22T00:14:12.119Z,49.46
2017-04-22T00:14:16.430Z,49.46
2017-04-22T00:14:20.861Z,49.46
2017-04-22T00:14:25.447Z,49.74
2017-04-22T00:14:29.872Z,49.46
2017-04-22T00:14:34.301Z,49.46
2017-04-22T00:14:38.723Z,49.55
2017-04-22T00:14:42.911Z,49.55
2017-04-22T00:14:47.219Z,49.74
2017-04-22T00:14:51.535Z,49.74
2017-04-22T00:14:55.960Z,49.55
2017-04-22T00:15:00.391Z,49.55
2017-04-22T00:15:04.697Z,49.74
2017-04-22T00:15:08.894Z,49.74
2017-04-22T00:15:13.203Z,49.55
2017-04-22T00:15:17.626Z,49.74
2017-04-22T00:15:22.056Z,49.55
2017-04-22T00:15:26.484Z,49.65
2017-04-22T00:15:30.909Z,49.65
2017-04-22T00:15:35.101Z,49.65
2017-04-22T00:15:39.528Z,49.55
2017-04-22T00:15:43.948Z,49.55
2017-04-22T00:15:48.249Z,49.65
2017-04-22T00:15:52.557Z,49.93
2017-04-22T00:15:56.993Z,49.55
2017-04-22T00:16:01.445Z,49.93
2017-04-22T00:16:05.871Z,49.74
2017-04-22T00:16:10.058Z,49.65
2017-04-22T00:16:14.097Z,49.74
2017-04-22T00:16:18.666Z,49.74
2017-04-22T00:16:23.090Z,49.46
2017-04-22T00:16:27.510Z,49.55
2017-04-22T00:16:31.811Z,49.74
2017-04-22T00:16:36.233Z,49.55
2017-04-22T00:16:40.665Z,49.65
2017-04-22T00:16:45.080Z,49.74
2017-04-22T00:16:49.390Z,49.55
2017-04-22T00:16:53.807Z,50.03
2017-04-22T00:16:58.240Z,49.84
2017-04-22T00:17:02.668Z,49.84
2017-04-22T00:17:06.998Z,49.84
2017-04-22T00:17:11.185Z,49.84
2017-04-22T00:17:15.374Z,49.84
2017-04-22T00:17:19.693Z,49.74
2017-04-22T00:17:24.197Z,49.84
2017-04-22T00:17:28.633Z,49.74
2017-04-22T00:17:33.062Z,49.93
2017-04-22T00:17:37.482Z,49.93
2017-04-22T00:17:41.910Z,49.74
2017-04-22T00:17:46.375Z,49.74
2017-04-22T00:17:50.690Z,49.74
2017-04-22T00:17:55.119Z,49.74
2017-04-22T00:17:59.540Z,49.84
2017-04-22T00:18:04.114Z,49.74
2017-04-22T00:18:08.434Z,49.84
2017-04-22T00:18:12.862Z,49.84
2017-04-22T00:18:17.173Z,49.84
2017-04-22T00:18:21.620Z,49.84
2017-04-22T00:18:26.053Z,49.74
2017-04-22T00:18:30.506Z,49.74
2017-04-22T00:18:35.029Z,49.74
2017-04-22T00:18:39.463Z,49.65
2017-04-22T00:18:43.892Z,49.74
2017-04-22T00:18:48.315Z,49.65
2017-04-22T00:18:52.625Z,49.93
2017-04-22T00:18:56.948Z,50.12
2017-04-22T00:19:01.138Z,49.84
2017-04-22T00:19:05.443Z,50.03
2017-04-22T00:19:09.749Z,49.93
2017-04-22T00:19:13.710Z,49.93
2017-04-22T00:19:18.028Z,50.03
2017-04-22T00:19:22.458Z,49.93
2017-04-22T00:19:26.891Z,50.03
2017-04-22T00:19:31.098Z,49.74
2017-04-22T00:19:35.536Z,49.93
2017-04-22T00:19:39.964Z,49.84
2017-04-22T00:19:44.388Z,50.03
2017-04-22T00:19:48.686Z,50.03
2017-04-22T00:19:53.108Z,49.84
2017-04-22T00:19:57.549Z,49.74
2017-04-22T00:20:01.867Z,49.74
2017-04-22T00:20:06.167Z,49.65
2017-04-22T00:20:10.594Z,49.65
2017-04-22T00:20:15.014Z,49.93
2017-04-22T00:20:19.441Z,49.93
2017-04-22T00:20:23.865Z,49.84
2017-04-22T00:20:28.284Z,50.22
2017-04-22T00:20:32.589Z,49.93
2017-04-22T00:20:36.782Z,50.22
2017-04-22T00:20:41.210Z,50.31
2017-04-22T00:20:45.517Z,50.22
2017-04-22T00:20:49.972Z,50.22
2017-04-22T00:20:54.397Z,49.93
2017-04-22T00:20:58.835Z,50.12
2017-04-22T00:21:03.605Z,50.12
2017-04-22T00:21:07.910Z,50.03
2017-04-22T00:21:12.219Z,50.31
2017-04-22T00:21:16.524Z,50.03
2017-04-22T00:21:20.946Z,50.41
2017-04-22T00:21:25.404Z,50.51
2017-04-22T00:21:29.842Z,50.12
2017-04-22T00:21:34.260Z,50.41
2017-04-22T00:21:38.679Z,50.31
2017-04-22T00:21:43.106Z,50.41
2017-04-22T00:21:47.558Z,49.93
2017-04-22T00:21:51.983Z,50.41
2017-04-22T00:21:56.363Z,50.03
2017-04-22T00:22:00.814Z,50.31
2017-04-22T00:22:05.456Z,50.31
2017-04-22T00:22:09.785Z,50.31
2017-04-22T00:22:13.973Z,50.41
2017-04-22T00:22:18.276Z,50.31
2017-04-22T00:22:22.692Z,50.31
2017-04-22T00:22:26.881Z,50.41
2017-04-22T00:22:31.329Z,49.93
2017-04-22T00:22:35.633Z,50.51
2017-04-22T00:22:40.053Z,50.03
2017-04-22T00:22:44.500Z,50.51
2017-04-22T00:22:48.924Z,50.51
2017-04-22T00:22:53.237Z,50.41
2017-04-22T00:22:57.544Z,49.93
2017-04-22T00:23:01.963Z,50.41
2017-04-22T00:23:06.428Z,50.41
2017-04-22T00:23:10.873Z,50.03
2017-04-22T00:23:15.190Z,50.03
2017-04-22T00:23:19.373Z,50.41
2017-04-22T00:23:23.567Z,50.41
2017-04-22T00:23:27.994Z,50.03
2017-04-22T00:23:32.428Z,50.22
2017-04-22T00:23:36.763Z,50.31
2017-04-22T00:23:41.185Z,49.93
2017-04-22T00:23:45.622Z,50.12
2017-04-22T00:23:49.925Z,50.6
2017-04-22T00:23:54.231Z,50.6
2017-04-22T00:23:58.657Z,50.6
2017-04-22T00:24:03.077Z,50.31
2017-04-22T00:24:07.389Z,50.31
2017-04-22T00:24:11.575Z,50.31
2017-04-22T00:24:16.077Z,50.31
2017-04-22T00:24:20.590Z,50.7
2017-04-22T00:24:25.025Z,50.51
2017-04-22T00:24:29.329Z,50.41
2017-04-22T00:24:33.629Z,50.41
2017-04-22T00:24:37.945Z,50.31
2017-04-22T00:24:42.373Z,50.31
2017-04-22T00:24:46.796Z,50.38
2017-04-22T00:24:51.216Z,50.31
2017-04-22T00:24:55.405Z,50.29
2017-04-22T00:24:59.837Z,50.41
2017-04-22T00:25:04.147Z,50.51
2017-04-22T00:25:08.564Z,50.6
2017-04-22T00:25:13.067Z,50.41
2017-04-22T00:25:17.400Z,50.41
2017-04-22T00:25:21.821Z,50.38
2017-04-22T00:25:26.436Z,50.51
2017-04-22T00:25:31.009Z,50.6
2017-04-22T00:25:35.318Z,50.31
2017-04-22T00:25:39.751Z,50.6
2017-04-22T00:25:44.170Z,50.31
2017-04-22T00:25:48.478Z,50.6
2017-04-22T00:25:52.547Z,50.41
2017-04-22T00:25:56.977Z,50.31
2017-04-22T00:26:01.406Z,50.41
2017-04-22T00:26:05.871Z,50.48
2017-04-22T00:26:10.058Z,50.48
2017-04-22T00:26:14.363Z,50.57
2017-04-22T00:26:18.807Z,50.6
2017-04-22T00:26:23.231Z,50.57
2017-04-22T00:26:27.655Z,50.7
2017-04-22T00:26:32.080Z,50.95
2017-04-22T00:26:36.508Z,50.7
2017-04-22T00:26:40.698Z,50.48
2017-04-22T00:26:45.122Z,50.6
2017-04-22T00:26:49.540Z,50.76
2017-04-22T00:26:53.840Z,50.95
2017-04-22T00:26:58.265Z,50.98
2017-04-22T00:27:02.926Z,51.07
2017-04-22T00:27:07.233Z,50.98
2017-04-22T00:27:11.649Z,50.86
2017-04-22T00:27:16.069Z,50.86
2017-04-22T00:27:20.490Z,50.48
2017-04-22T00:27:24.927Z,50.76
2017-04-22T00:27:29.230Z,51.17
2017-04-22T00:27:33.657Z,51.05
2017-04-22T00:27:38.116Z,51.07
2017-04-22T00:27:42.604Z,50.95
2017-04-22T00:27:46.931Z,50.95
2017-04-22T00:27:51.362Z,51.07
2017-04-22T00:27:55.565Z,51.05
2017-04-22T00:27:59.985Z,51.05
2017-04-22T00:28:04.773Z,51.05
2017-04-22T00:28:09.096Z,50.95
2017-04-22T00:28:13.524Z,51.07
2017-04-22T00:28:17.850Z,51.24
2017-04-22T00:28:22.037Z,51.05
2017-04-22T00:28:26.464Z,51.05
2017-04-22T00:28:30.894Z,51.14
2017-04-22T00:28:35.337Z,51.14
2017-04-22T00:28:39.775Z,50.98
2017-04-22T00:28:44.218Z,51.05
2017-04-22T00:28:48.712Z,51.05
2017-04-22T00:28:53.150Z,51.26
2017-04-22T00:28:57.457Z,51.05
2017-04-22T00:29:02.135Z,51.07
2017-04-22T00:29:06.578Z,51.36
2017-04-22T00:29:10.892Z,50.95
2017-04-22T00:29:14.969Z,51.05
2017-04-22T00:29:19.396Z,51.33
2017-04-22T00:29:23.825Z,51.14
2017-04-22T00:29:28.013Z,50.95
2017-04-22T00:29:32.438Z,51.33
2017-04-22T00:29:36.872Z,51.52
2017-04-22T00:29:41.179Z,51.33
2017-04-22T00:29:45.487Z,51.24
2017-04-22T00:29:49.910Z,51.17
2017-04-22T00:29:54.633Z,51.24
2017-04-22T00:29:58.953Z,51.24
2017-04-22T00:30:03.376Z,51.26
2017-04-22T00:30:07.800Z,51.24
2017-04-22T00:30:11.992Z,51.24
2017-04-22T00:30:16.179Z,51.33
2017-04-22T00:30:20.603Z,51.33
2017-04-22T00:30:25.028Z,51.33
2017-04-22T00:30:29.449Z,51.33
2017-04-22T00:30:33.893Z,51.33
2017-04-22T00:30:38.322Z,51.14
2017-04-22T00:30:42.747Z,51.43
2017-04-22T00:30:47.169Z,51.33
2017-04-22T00:30:51.598Z,51.43
2017-04-22T00:30:55.912Z,52.09
2017-04-22T00:31:00.220Z,51.72
2017-04-22T00:31:04.793Z,51.52
2017-04-22T00:31:09.430Z,51.62
2017-04-22T00:31:13.736Z,51.72
2017-04-22T00:31:18.154Z,51.62
2017-04-22T00:31:22.590Z,51.72
2017-04-22T00:31:27.017Z,51.72
2017-04-22T00:31:31.438Z,51.62
2017-04-22T00:31:35.862Z,52.12
2017-04-22T00:31:40.048Z,51.72
2017-04-22T00:31:44.491Z,52.09
2017-04-22T00:31:48.912Z,52.09
2017-04-22T00:31:53.331Z,51.81
2017-04-22T00:31:57.523Z,52
2017-04-22T00:32:02.059Z,52
2017-04-22T00:32:06.257Z,51.81
2017-04-22T00:32:10.680Z,51.83
2017-04-22T00:32:15.250Z,52
2017-04-22T00:32:19.669Z,52
2017-04-22T00:32:24.092Z,52
2017-04-22T00:32:28.554Z,51.81
2017-04-22T00:32:32.973Z,52
2017-04-22T00:32:37.393Z,52.09
2017-04-22T00:32:41.820Z,51.81
2017-04-22T00:32:46.139Z,51.72
2017-04-22T00:32:50.566Z,51.9
2017-04-22T00:32:54.992Z,51.9
2017-04-22T00:32:59.299Z,51.83
2017-04-22T00:33:03.755Z,51.74
2017-04-22T00:33:08.195Z,51.9
2017-04-22T00:33:12.529Z,51.9
2017-04-22T00:33:16.730Z,51.93
2017-04-22T00:33:21.187Z,51.9
2017-04-22T00:33:25.685Z,51.9
2017-04-22T00:33:29.993Z,52
2017-04-22T00:33:34.428Z,52
2017-04-22T00:33:38.849Z,51.9
2017-04-22T00:33:43.274Z,51.83
2017-04-22T00:33:47.701Z,51.9
2017-04-22T00:33:52.125Z,51.9
2017-04-22T00:33:56.554Z,51.9
2017-04-22T00:34:01.025Z,51.81
2017-04-22T00:34:05.550Z,51.9
2017-04-22T00:34:09.859Z,52.09
2017-04-22T00:34:14.172Z,52
2017-04-22T00:34:18.599Z,51.81
2017-04-22T00:34:22.906Z,52
2017-04-22T00:34:27.361Z,51.93
2017-04-22T00:34:31.692Z,51.81
2017-04-22T00:34:36.150Z,51.9
2017-04-22T00:34:40.580Z,51.93
2017-04-22T00:34:45.000Z,52
2017-04-22T00:34:49.305Z,52
2017-04-22T00:34:53.733Z,51.9
2017-04-22T00:34:58.166Z,51.9
2017-04-22T00:35:02.550Z,52
2017-04-22T00:35:06.975Z,51.9
2017-04-22T00:35:11.393Z,52
2017-04-22T00:35:15.584Z,51.9
2017-04-22T00:35:20.014Z,51.9
2017-04-22T00:35:24.213Z,51.9
2017-04-22T00:35:28.637Z,52.09
2017-04-22T00:35:33.059Z,51.81
2017-04-22T00:35:37.644Z,51.9
2017-04-22T00:35:42.252Z,52
2017-04-22T00:35:46.558Z,52.37
2017-04-22T00:35:50.864Z,52.66
2017-04-22T00:35:55.167Z,52.28
2017-04-22T00:35:59.586Z,52.28
2017-04-22T00:36:04.013Z,52.37
2017-04-22T00:36:08.217Z,52.37
2017-04-22T00:36:12.523Z,52.28
2017-04-22T00:36:16.710Z,52.47
2017-04-22T00:36:20.916Z,52.37
2017-04-22T00:36:25.350Z,52.37
2017-04-22T00:36:29.776Z,52.37
2017-04-22T00:36:34.225Z,52.37
2017-04-22T00:36:38.649Z,52.37
2017-04-22T00:36:43.069Z,52.28
2017-04-22T00:36:47.533Z,52.47
2017-04-22T00:36:51.957Z,52.37
2017-04-22T00:36:56.381Z,52.28
2017-04-22T00:37:00.683Z,52.28
2017-04-22T00:37:05.252Z,52.19
2017-04-22T00:37:09.439Z,52
2017-04-22T00:37:13.747Z,52.4
2017-04-22T00:37:18.175Z,52.37
2017-04-22T00:37:22.599Z,52.19
2017-04-22T00:37:27.022Z,52.02
2017-04-22T00:37:31.338Z,52
2017-04-22T00:37:35.649Z,52
2017-04-22T00:37:40.075Z,52.19
2017-04-22T00:37:44.494Z,52
2017-04-22T00:37:48.807Z,52
2017-04-22T00:37:53.224Z,52.19
2017-04-22T00:37:57.699Z,52.28
2017-04-22T00:38:02.094Z,52.31
2017-04-22T00:38:06.278Z,52.19
2017-04-22T00:38:10.711Z,52.09
2017-04-22T00:38:15.144Z,52.09
2017-04-22T00:38:19.608Z,52.09
2017-04-22T00:38:23.923Z,52.09
2017-04-22T00:38:28.347Z,52.19
2017-04-22T00:38:32.770Z,52.09
2017-04-22T00:38:37.197Z,52.09
2017-04-22T00:38:41.636Z,52.47
2017-04-22T00:38:45.830Z,52.37
2017-04-22T00:38:50.154Z,52.47
2017-04-22T00:38:54.586Z,52.19
2017-04-22T00:38:59.027Z,52.19
2017-04-22T00:39:03.445Z,52.28
2017-04-22T00:39:07.748Z,52.28
2017-04-22T00:39:11.934Z,52.47
2017-04-22T00:39:16.246Z,52.56
2017-04-22T00:39:20.682Z,52.66
2017-04-22T00:39:25.107Z,52.66
2017-04-22T00:39:29.569Z,52.56
2017-04-22T00:39:33.872Z,52.47
2017-04-22T00:39:38.288Z,52.47
2017-04-22T00:39:42.722Z,52.85
2017-04-22T00:39:47.171Z,52.59
2017-04-22T00:39:51.593Z,53.14
2017-04-22T00:39:56.012Z,53.14
2017-04-22T00:40:00.440Z,52.95
2017-04-22T00:40:04.627Z,53.04
2017-04-22T00:40:09.452Z,52.95
2017-04-22T00:40:13.995Z,52.97
2017-04-22T00:40:18.417Z,53.14
2017-04-22T00:40:22.850Z,52.95
2017-04-22T00:40:27.184Z,53.14
2017-04-22T00:40:31.619Z,52.95
2017-04-22T00:40:36.057Z,52.85
2017-04-22T00:40:40.476Z,52.95
2017-04-22T00:40:44.915Z,52.56
2017-04-22T00:40:49.270Z,52.85
2017-04-22T00:40:53.704Z,52.95
2017-04-22T00:40:58.125Z,52.95
2017-04-22T00:41:02.423Z,52.66
2017-04-22T00:41:06.850Z,52.85
2017-04-22T00:41:11.171Z,52.95
2017-04-22T00:41:15.470Z,52.87
2017-04-22T00:41:20.304Z,52.95
2017-04-22T00:41:24.725Z,52.95
2017-04-22T00:41:29.147Z,53.14
2017-04-22T00:41:33.581Z,53.14
2017-04-22T00:41:37.880Z,53.04
2017-04-22T00:41:42.323Z,53.14
2017-04-22T00:41:46.745Z,53.04
2017-04-22T00:41:51.053Z,52.85
2017-04-22T00:41:55.477Z,53.14
2017-04-22T00:41:59.782Z,53.14
2017-04-22T00:42:04.089Z,53.14
2017-04-22T00:42:08.394Z,53.14
2017-04-22T00:42:12.588Z,53.14
2017-04-22T00:42:16.663Z,53.04
2017-04-22T00:42:21.080Z,52.95
2017-04-22T00:42:25.605Z,53.23
2017-04-22T00:42:30.402Z,53.14
2017-04-22T00:42:34.718Z,53.04
2017-04-22T00:42:39.140Z,53.07
2017-04-22T00:42:43.567Z,53.04
2017-04-22T00:42:47.891Z,53.04
2017-04-22T00:42:52.328Z,53.33
2017-04-22T00:42:56.790Z,53.23
2017-04-22T00:43:01.214Z,53.23
2017-04-22T00:43:05.766Z,53.33
2017-04-22T00:43:10.079Z,53.61
2017-04-22T00:43:14.155Z,53.14
2017-04-22T00:43:18.465Z,53.23
2017-04-22T00:43:22.792Z,53.61
2017-04-22T00:43:27.237Z,53.52
2017-04-22T00:43:31.663Z,53.42
2017-04-22T00:43:36.179Z,53.61
2017-04-22T00:43:40.627Z,53.42
2017-04-22T00:43:44.929Z,53.61
2017-04-22T00:43:49.236Z,53.52
2017-04-22T00:43:53.664Z,53.33
2017-04-22T00:43:58.092Z,53.33
2017-04-22T00:44:02.680Z,53.33
2017-04-22T00:44:07.104Z,53.61
2017-04-22T00:44:11.299Z,53.7
2017-04-22T00:44:15.604Z,53.61
2017-04-22T00:44:19.939Z,53.61
2017-04-22T00:44:24.244Z,53.7
2017-04-22T00:44:28.674Z,53.33
2017-04-22T00:44:33.092Z,53.7
2017-04-22T00:44:37.396Z,53.8
2017-04-22T00:44:41.987Z,53.61
2017-04-22T00:44:46.436Z,53.61
2017-04-22T00:44:50.745Z,53.52
2017-04-22T00:44:55.170Z,53.8
2017-04-22T00:44:59.618Z,53.8
2017-04-22T00:45:04.141Z,53.52
2017-04-22T00:45:08.569Z,53.89
2017-04-22T00:45:12.880Z,54.08
2017-04-22T00:45:17.187Z,54.08
2017-04-22T00:45:21.670Z,53.8
2017-04-22T00:45:26.094Z,54.08
2017-04-22T00:45:30.528Z,54.08
2017-04-22T00:45:34.945Z,53.8
2017-04-22T00:45:39.252Z,54.08
2017-04-22T00:45:43.334Z,54.08
2017-04-22T00:45:47.762Z,53.61
2017-04-22T00:45:52.221Z,53.8
2017-04-22T00:45:56.645Z,53.99
2017-04-22T00:46:01.084Z,53.99
2017-04-22T00:46:05.390Z,54.18
2017-04-22T00:46:09.573Z,54.37
2017-04-22T00:46:14.010Z,54.18
2017-04-22T00:46:18.432Z,54.56
2017-04-22T00:46:22.860Z,54.46
2017-04-22T00:46:27.285Z,54.66
2017-04-22T00:46:31.705Z,54.75
2017-04-22T00:46:36.029Z,54.75
2017-04-22T00:46:40.452Z,54.75
2017-04-22T00:46:44.644Z,54.66
2017-04-22T00:46:49.073Z,54.46
2017-04-22T00:46:53.497Z,54.75
2017-04-22T00:46:57.917Z,54.75
2017-04-22T00:47:02.337Z,54.75
2017-04-22T00:47:06.530Z,54.75
2017-04-22T00:47:10.845Z,54.56
2017-04-22T00:47:15.145Z,54.56
2017-04-22T00:47:19.567Z,54.66
2017-04-22T00:47:23.999Z,54.37
2017-04-22T00:47:28.318Z,54.56
2017-04-22T00:47:32.652Z,54.56
2017-04-22T00:47:37.082Z,54.56
2017-04-22T00:47:41.503Z,54.56
2017-04-22T00:47:45.925Z,54.56
2017-04-22T00:47:50.239Z,54.66
2017-04-22T00:47:54.706Z,54.56
2017-04-22T00:47:59.166Z,54.37
2017-04-22T00:48:03.597Z,54.66
2017-04-22T00:48:07.910Z,54.66
2017-04-22T00:48:12.311Z,54.56
2017-04-22T00:48:16.740Z,54.56
2017-04-22T00:48:21.045Z,54.66
2017-04-22T00:48:25.358Z,54.66
2017-04-22T00:48:29.784Z,54.56
2017-04-22T00:48:34.221Z,54.37
2017-04-22T00:48:38.660Z,54.46
2017-04-22T00:48:43.085Z,54.66
2017-04-22T00:48:47.397Z,54.46
2017-04-22T00:48:51.722Z,54.56
2017-04-22T00:48:56.167Z,54.56
2017-04-22T00:49:00.605Z,54.56
2017-04-22T00:49:05.039Z,54.56
2017-04-22T00:49:09.343Z,54.37
2017-04-22T00:49:13.656Z,54.56
2017-04-22T00:49:18.072Z,54.56
2017-04-22T00:49:22.501Z,54.27
2017-04-22T00:49:26.806Z,54.75
2017-04-22T00:49:31.109Z,54.94
2017-04-22T00:49:35.530Z,54.66
2017-04-22T00:49:39.960Z,54.66
2017-04-22T00:49:44.380Z,54.66
2017-04-22T00:49:48.800Z,54.66
2017-04-22T00:49:53.108Z,54.66
2017-04-22T00:49:57.540Z,54.66
2017-04-22T00:50:01.973Z,54.46
2017-04-22T00:50:06.275Z,54.75
2017-04-22T00:50:10.457Z,54.94
2017-04-22T00:50:14.764Z,54.85
2017-04-22T00:50:19.199Z,54.94
2017-04-22T00:50:23.758Z,54.66
2017-04-22T00:50:28.362Z,54.66
2017-04-22T00:50:32.785Z,54.56
2017-04-22T00:50:37.224Z,54.75
2017-04-22T00:50:41.652Z,55.04
2017-04-22T00:50:45.960Z,55.13
2017-04-22T00:50:50.263Z,55.22
2017-04-22T00:50:54.446Z,54.75
2017-04-22T00:50:58.876Z,54.85
2017-04-22T00:51:03.497Z,54.85
2017-04-22T00:51:07.922Z,54.85
2017-04-22T00:51:12.340Z,55.13
2017-04-22T00:51:16.526Z,55.04
2017-04-22T00:51:20.968Z,55.22
2017-04-22T00:51:25.390Z,55.13
2017-04-22T00:51:29.848Z,54.94
2017-04-22T00:51:34.150Z,54.94
2017-04-22T00:51:38.456Z,54.75
2017-04-22T00:51:42.880Z,55.32
2017-04-22T00:51:47.301Z,55.13
2017-04-22T00:51:51.494Z,55.13
2017-04-22T00:51:55.921Z,55.13
2017-04-22T00:52:00.356Z,55.13
2017-04-22T00:52:04.878Z,55.32
2017-04-22T00:52:09.182Z,55.32
2017-04-22T00:52:13.612Z,55.13
2017-04-22T00:52:18.033Z,55.22
2017-04-22T00:52:22.340Z,55.13
2017-04-22T00:52:26.779Z,55.13
2017-04-22T00:52:31.080Z,54.94
2017-04-22T00:52:35.402Z,55.13
2017-04-22T00:52:39.861Z,55.13
2017-04-22T00:52:44.389Z,55.04
2017-04-22T00:52:48.705Z,55.13
2017-04-22T00:52:53.023Z,55.13
2017-04-22T00:52:57.471Z,55.04
2017-04-22T00:53:01.904Z,55.13
2017-04-22T00:53:06.378Z,55.13
2017-04-22T00:53:10.684Z,55.13
2017-04-22T00:53:14.762Z,55.22
2017-04-22T00:53:19.185Z,55.32
2017-04-22T00:53:23.616Z,55.41
2017-04-22T00:53:27.810Z,55.41
2017-04-22T00:53:32.012Z,55.41
2017-04-22T00:53:36.436Z,55.32
2017-04-22T00:53:40.861Z,55.32
2017-04-22T00:53:45.176Z,55.41
2017-04-22T00:53:49.789Z,55.32
2017-04-22T00:53:54.102Z,55.13
2017-04-22T00:53:58.525Z,55.22
2017-04-22T00:54:02.993Z,55.13
2017-04-22T00:54:07.434Z,55.04
2017-04-22T00:54:11.743Z,55.22
2017-04-22T00:54:15.937Z,55.13
2017-04-22T00:54:20.130Z,55.32
2017-04-22T00:54:24.454Z,55.32
2017-04-22T00:54:28.885Z,55.32
2017-04-22T00:54:33.307Z,55.51
2017-04-22T00:54:37.728Z,55.51
2017-04-22T00:54:42.162Z,55.79
2017-04-22T00:54:46.476Z,55.79
2017-04-22T00:54:50.784Z,55.41
2017-04-22T00:54:55.442Z,55.41
2017-04-22T00:54:59.988Z,55.79
2017-04-22T00:55:04.330Z,56.17
2017-04-22T00:55:08.640Z,55.7
2017-04-22T00:55:12.942Z,56.08
2017-04-22T00:55:17.265Z,55.32
2017-04-22T00:55:21.701Z,55.79
2017-04-22T00:55:26.121Z,55.79
2017-04-22T00:55:30.538Z,55.22
2017-04-22T00:55:34.959Z,55.7
2017-04-22T00:55:39.384Z,55.6
2017-04-22T00:55:43.698Z,55.98
2017-04-22T00:55:48.123Z,56.08
2017-04-22T00:55:52.546Z,56.08
2017-04-22T00:55:56.864Z,55.79
2017-04-22T00:56:01.413Z,56.17
2017-04-22T00:56:05.945Z,56.08
2017-04-22T00:56:10.042Z,56.17
2017-04-22T00:56:14.356Z,55.51
2017-04-22T00:56:18.692Z,55.51
2017-04-22T00:56:23.110Z,55.41
2017-04-22T00:56:27.538Z,55.41
2017-04-22T00:56:31.959Z,55.6
2017-04-22T00:56:36.412Z,55.51
2017-04-22T00:56:40.835Z,55.79
2017-04-22T00:56:45.261Z,55.98
2017-04-22T00:56:49.694Z,55.51